Time;durP1;ratioP1;P1;durP2;ratioP2;P2;SDS_P1;SDS_P2;PMS_P1;PMS_P2;Temp;Humidity;BMP_temperature;BMP_pressure;BME280_temperature;BME280_humidity;BME280_pressure;Samples;Min_cycle;Max_cycle;Signal;HPM_P1;HPM_P2
2022/03/06 00:01:39;;;;;;;;;80.67;69.67;;;;;11.57;58.48;101445.06;4989742;28;46390;-82
2022/03/06 00:04:05;;;;;;;;;79.67;65.33;;;;;11.58;58.56;101447.69;4994787;28;45469;-83
2022/03/06 00:06:30;;;;;;;;;80.67;69.00;;;;;11.58;58.61;101450.34;4994345;28;45717;-81
2022/03/06 00:08:56;;;;;;;;;82.00;62.00;;;;;11.50;58.45;101448.06;4994809;28;45456;-81
2022/03/06 00:11:21;;;;;;;;;79.33;63.00;;;;;11.45;58.62;101439.41;4993401;28;45488;-81
2022/03/06 00:13:47;;;;;;;;;78.67;61.00;;;;;11.46;58.67;101451.81;4992251;28;45355;-81
2022/03/06 00:16:12;;;;;;;;;80.33;64.33;;;;;11.38;58.45;101443.31;4992983;28;46181;-82
2022/03/06 00:18:38;;;;;;;;;77.67;62.33;;;;;11.34;58.58;101435.53;4993494;28;45386;-82
2022/03/06 00:21:05;;;;;;;;;80.00;66.00;;;;;11.35;58.77;101446.13;4986863;28;45825;-81
2022/03/06 00:23:30;;;;;;;;;80.00;64.67;;;;;11.33;58.64;101452.44;4990716;28;45390;-82
2022/03/06 00:25:55;;;;;;;;;78.67;67.00;;;;;11.29;58.59;101446.41;4987688;28;46111;-81
2022/03/06 00:28:21;;;;;;;;;79.33;59.67;;;;;11.29;58.55;101451.75;4989413;28;45834;-82
2022/03/06 00:30:48;;;;;;;;;77.67;65.00;;;;;11.27;58.24;101457.16;4983089;28;45300;-82
2022/03/06 00:33:13;;;;;;;;;81.00;66.00;;;;;11.26;58.22;101465.22;4986463;28;45445;-81
2022/03/06 00:35:38;;;;;;;;;77.33;63.00;;;;;11.24;58.51;101457.31;4987752;28;45984;-82
2022/03/06 00:38:04;;;;;;;;;76.00;60.67;;;;;11.23;58.22;101460.03;4988178;28;45648;-82
2022/03/06 00:40:29;;;;;;;;;74.00;60.00;;;;;11.16;57.97;101448.81;4991500;28;45774;-82
2022/03/06 00:42:55;;;;;;;;;81.67;63.00;;;;;11.14;58.07;101449.84;4989975;28;45393;-81
2022/03/06 00:45:20;;;;;;;;;78.33;58.67;;;;;11.17;57.80;101455.00;4984701;28;45520;-80
2022/03/06 00:47:46;;;;;;;;;77.33;61.67;;;;;11.16;57.57;101455.91;4986313;28;45368;-81
2022/03/06 00:50:12;;;;;;;;;77.00;61.33;;;;;11.13;57.72;101451.59;4988246;28;46210;-81
2022/03/06 00:52:39;;;;;;;;;72.00;57.00;;;;;11.06;57.15;101460.81;4985313;28;45462;-81
2022/03/06 00:55:05;;;;;;;;;77.00;62.67;;;;;11.00;57.31;101461.97;4986158;28;45512;-81
2022/03/06 00:57:30;;;;;;;;;80.33;63.67;;;;;10.95;56.91;101453.34;4987612;28;45351;-81
2022/03/06 00:59:56;;;;;;;;;71.67;56.33;;;;;10.87;56.98;101451.03;4991530;28;45461;-82
2022/03/06 01:02:21;;;;;;;;;72.33;56.67;;;;;10.90;56.77;101460.69;4989229;28;47117;-82
2022/03/06 01:04:46;;;;;;;;;72.33;56.00;;;;;10.84;56.40;101450.28;4986697;28;45864;-82
2022/03/06 01:07:12;;;;;;;;;77.67;58.33;;;;;10.81;56.26;101453.09;4988662;28;45485;-83
2022/03/06 01:09:37;;;;;;;;;72.00;58.33;;;;;10.82;56.23;101468.13;4984062;28;47605;-82
2022/03/06 01:12:03;;;;;;;;;76.00;59.33;;;;;10.82;56.08;101468.13;4983730;28;45935;-84
2022/03/06 01:14:29;;;;;;;;;73.00;56.33;;;;;10.81;56.17;101472.59;4985957;28;45366;-82
2022/03/06 01:16:54;;;;;;;;;72.33;57.00;;;;;10.78;55.96;101466.56;4985996;28;45540;-81
2022/03/06 01:19:20;;;;;;;;;73.00;56.00;;;;;10.67;55.58;101456.38;4990318;28;46547;-81
2022/03/06 01:21:45;;;;;;;;;75.33;59.00;;;;;10.72;55.53;101462.38;4984570;28;45423;-82
2022/03/06 01:24:11;;;;;;;;;76.67;62.00;;;;;10.73;55.54;101473.91;4986299;28;45426;-83
2022/03/06 01:26:36;;;;;;;;;77.67;58.33;;;;;10.71;55.09;101476.63;4986368;28;45556;-82
2022/03/06 01:29:03;;;;;;;;;75.67;58.00;;;;;10.59;55.28;101448.75;4980927;28;46000;-82
2022/03/06 01:31:28;;;;;;;;;71.00;55.67;;;;;10.64;55.17;101464.53;4979468;28;45359;-80
2022/03/06 01:33:53;;;;;;;;;72.67;57.33;;;;;10.62;55.21;101469.03;4987307;28;45413;-80
2022/03/06 01:36:19;;;;;;;;;72.00;55.67;;;;;10.62;55.23;101463.72;4989432;28;45488;-82
2022/03/06 01:38:44;;;;;;;;;72.33;55.00;;;;;10.55;54.89;101463.13;4987746;28;46039;-82
2022/03/06 01:41:10;;;;;;;;;74.33;59.00;;;;;10.55;54.80;101463.13;4987204;28;45509;-83
2022/03/06 01:43:35;;;;;;;;;71.00;56.00;;;;;10.45;54.92;101460.00;4983439;28;45520;-81
2022/03/06 01:46:01;;;;;;;;;75.00;58.00;;;;;10.44;54.72;101466.28;4989319;28;45277;-81
2022/03/06 01:48:26;;;;;;;;;71.67;56.00;;;;;10.39;54.99;101456.75;4987550;28;45852;-80
2022/03/06 01:50:51;;;;;;;;;75.00;56.00;;;;;10.35;54.73;101458.69;4986759;28;45471;-82
2022/03/06 01:53:17;;;;;;;;;73.33;57.00;;;;;10.30;54.78;101446.53;4990887;28;45386;-82
2022/03/06 01:55:43;;;;;;;;;69.33;55.33;;;;;10.28;54.79;101459.00;4982681;28;45433;-81
2022/03/06 01:58:11;;;;;;;;;69.33;54.67;;;;;10.26;54.81;101469.69;4982449;28;46316;-81
2022/03/06 02:00:44;;;;;;;;;73.67;57.67;;;;;10.24;54.61;101466.22;4986928;28;45503;-81
2022/03/06 02:03:11;;;;;;;;;75.33;59.00;;;;;10.23;54.53;101464.50;4985191;28;45430;-82
2022/03/06 02:05:38;;;;;;;;;68.67;55.33;;;;;10.21;54.41;101469.03;4984108;28;45557;-83
2022/03/06 02:08:05;;;;;;;;;71.00;56.67;;;;;10.15;54.45;101466.63;4988641;28;45405;-83
2022/03/06 02:10:31;;;;;;;;;77.67;56.00;;;;;10.16;54.28;101468.38;4985892;28;45528;-83
2022/03/06 02:12:58;;;;;;;;;72.33;54.00;;;;;10.09;54.17;101457.09;4987787;28;45463;-82
2022/03/06 02:15:23;;;;;;;;;68.33;54.00;;;;;10.05;53.95;101450.19;4985588;28;45251;-82
2022/03/06 02:17:49;;;;;;;;;74.67;56.67;;;;;10.07;54.22;101460.78;4987993;28;45524;-82
2022/03/06 02:20:21;;;;;;;;;69.33;54.33;;;;;10.03;53.74;101463.56;4987191;28;45577;-82
2022/03/06 02:22:49;;;;;;;;;70.67;57.00;;;;;9.98;53.94;101457.56;4990338;28;45236;-83
2022/03/06 02:25:21;;;;;;;;;69.33;56.00;;;;;9.98;53.76;101470.00;4991508;28;45400;-82
2022/03/06 02:27:48;;;;;;;;;67.00;53.67;;;;;9.91;53.74;101457.88;4989171;28;45488;-81
2022/03/06 02:30:17;;;;;;;;;70.67;54.00;;;;;9.92;53.92;101460.47;4987999;28;45406;-83
2022/03/06 02:32:48;;;;;;;;;72.33;55.67;;;;;9.86;53.45;101446.56;4990394;28;45351;-82
2022/03/06 02:35:14;;;;;;;;;74.67;56.00;;;;;9.86;53.64;101451.88;4991032;28;45534;-82
2022/03/06 02:37:40;;;;;;;;;67.67;54.00;;;;;9.74;53.47;101435.53;4985114;28;45477;-81
2022/03/06 02:40:08;;;;;;;;;70.67;54.33;;;;;9.80;53.53;101461.84;4979401;28;45496;-82
2022/03/06 02:42:36;;;;;;;;;71.67;57.00;;;;;9.77;53.58;101461.13;4988616;28;45362;-82
2022/03/06 02:45:09;;;;;;;;;71.33;56.00;;;;;9.66;53.66;101444.75;4992770;28;45683;-83
2022/03/06 02:47:35;;;;;;;;;75.00;58.33;;;;;9.73;53.61;101452.41;4989648;28;47255;-82
2022/03/06 02:50:02;;;;;;;;;72.00;54.33;;;;;9.72;53.62;101469.28;4988172;28;45485;-82
2022/03/06 02:52:28;;;;;;;;;56.67;45.67;;;;;9.66;53.64;101458.03;4991646;28;45631;-81
2022/03/06 02:54:53;;;;;;;;;69.00;54.00;;;;;9.61;53.83;101463.53;4985172;28;45537;-82
2022/03/06 02:57:19;;;;;;;;;67.67;53.67;;;;;9.61;53.45;101460.88;4989428;28;48340;-82
2022/03/06 02:59:44;;;;;;;;;71.00;54.00;;;;;9.59;53.57;101460.94;4988830;28;45280;-82
2022/03/06 03:02:10;;;;;;;;;61.33;48.33;;;;;9.54;53.53;101459.41;4981532;28;45375;-82
2022/03/06 03:04:39;;;;;;;;;66.67;54.67;;;;;9.50;53.44;101458.66;4987958;28;45647;-82
2022/03/06 03:07:05;;;;;;;;;66.00;52.00;;;;;9.41;53.36;101452.84;4992770;28;46622;-81
2022/03/06 03:09:31;;;;;;;;;69.00;54.00;;;;;9.46;53.48;101458.84;4992697;28;45469;-83
2022/03/06 03:11:56;;;;;;;;;69.67;55.00;;;;;9.38;53.51;101452.03;4986994;28;45511;-82
2022/03/06 03:14:22;;;;;;;;;67.00;51.00;;;;;9.36;53.43;101451.25;4992162;28;45466;-82
2022/03/06 03:16:47;;;;;;;;;66.00;54.00;;;;;9.29;53.02;101449.75;4993351;28;46036;-83
2022/03/06 03:19:13;;;;;;;;;63.67;51.67;;;;;9.29;53.35;101459.53;4992987;28;45693;-83
2022/03/06 03:21:39;;;;;;;;;69.00;55.00;;;;;9.29;53.44;101464.84;4987368;28;46121;-83
2022/03/06 03:24:05;;;;;;;;;65.67;53.00;;;;;9.18;53.39;101468.75;4983590;28;45613;-82
2022/03/06 03:26:30;;;;;;;;;72.00;55.67;;;;;9.20;53.44;101475.81;4985974;28;45520;-82
2022/03/06 03:28:56;;;;;;;;;68.00;54.00;;;;;9.12;53.64;101465.47;4980470;28;45963;-82
2022/03/06 03:31:21;;;;;;;;;68.67;55.00;;;;;9.17;53.44;101471.47;4986686;28;45959;-82
2022/03/06 03:33:46;;;;;;;;;70.67;54.00;;;;;9.13;53.14;101473.38;4989082;28;45848;-83
2022/03/06 03:36:12;;;;;;;;;69.00;55.67;;;;;9.05;53.41;101464.84;4992248;28;45703;-82
2022/03/06 03:38:39;;;;;;;;;67.33;52.67;;;;;9.13;53.19;101480.47;4987141;28;45459;-82
2022/03/06 03:41:05;;;;;;;;;67.00;53.67;;;;;9.10;53.36;101476.16;4986255;28;45572;-82
2022/03/06 03:43:31;;;;;;;;;67.00;53.33;;;;;9.03;53.04;101468.47;4984430;28;45371;-82
2022/03/06 03:45:59;;;;;;;;;65.67;50.00;;;;;9.02;53.34;101477.34;4979443;28;46983;-82
2022/03/06 03:48:29;;;;;;;;;72.33;55.00;;;;;8.97;53.40;101482.84;4991277;28;45267;-83
2022/03/06 03:50:55;;;;;;;;;68.00;53.00;;;;;8.95;53.23;101479.41;4982898;28;45362;-83
2022/03/06 03:53:22;;;;;;;;;71.33;54.00;;;;;8.92;53.70;101484.81;4993117;28;45409;-82
2022/03/06 03:55:48;;;;;;;;;66.33;53.33;;;;;8.88;53.64;101483.22;4992213;28;45384;-82
2022/03/06 03:58:14;;;;;;;;;71.33;53.67;;;;;8.87;53.72;101479.66;4995178;28;45195;-82
2022/03/06 04:00:39;;;;;;;;;69.67;54.00;;;;;8.86;53.73;101485.06;4979535;28;45409;-82
2022/03/06 04:03:05;;;;;;;;;70.33;55.00;;;;;8.85;53.72;101492.16;5001302;28;45571;-82
2022/03/06 04:05:30;;;;;;;;;71.00;54.67;;;;;8.79;53.67;101472.91;4999741;28;45493;-82
2022/03/06 04:07:56;;;;;;;;;69.00;53.00;;;;;8.85;53.43;101493.91;5000040;28;45465;-82
2022/03/06 04:10:21;;;;;;;;;66.00;52.00;;;;;8.81;53.45;101487.00;5000484;28;45768;-82
2022/03/06 04:12:46;;;;;;;;;71.33;53.33;;;;;8.80;53.74;101498.53;4997302;28;45364;-83
2022/03/06 04:15:11;;;;;;;;;70.67;55.67;;;;;8.77;53.75;101499.50;4998049;28;48199;-82
2022/03/06 04:17:37;;;;;;;;;70.67;56.00;;;;;8.73;53.71;101498.78;4995174;28;48703;-82
2022/03/06 04:20:03;;;;;;;;;67.00;53.00;;;;;8.73;53.51;101505.84;4995971;28;45433;-82
2022/03/06 04:22:29;;;;;;;;;72.00;54.00;;;;;8.68;53.94;101513.13;4995671;28;45442;-82
2022/03/06 04:24:54;;;;;;;;;67.00;53.33;;;;;8.63;54.21;101507.09;4995484;28;45497;-82
2022/03/06 04:27:19;;;;;;;;;72.00;54.00;;;;;8.63;54.02;101513.28;4995947;28;45434;-82
2022/03/06 04:29:45;;;;;;;;;72.67;55.33;;;;;8.63;54.03;101515.06;4996470;28;45376;-82
2022/03/06 04:32:10;;;;;;;;;69.67;55.67;;;;;8.55;54.27;101509.19;4995136;28;57409;-82
2022/03/06 04:34:36;;;;;;;;;69.33;54.33;;;;;8.56;54.35;101516.19;4991556;28;48856;-82
2022/03/06 04:37:01;;;;;;;;;66.67;53.33;;;;;8.47;54.54;101498.84;4991358;28;45749;-82
2022/03/06 04:39:27;;;;;;;;;67.67;53.00;;;;;8.50;54.35;101519.94;4995768;28;45326;-82
2022/03/06 04:41:52;;;;;;;;;68.67;55.00;;;;;8.50;54.30;101519.94;4996337;28;45412;-82
2022/03/06 04:44:17;;;;;;;;;69.33;55.33;;;;;8.39;54.61;101517.63;4995291;28;45920;-82
2022/03/06 04:46:43;;;;;;;;;71.00;54.00;;;;;8.43;54.11;101518.44;4995142;28;45346;-82
2022/03/06 04:49:08;;;;;;;;;68.33;54.67;;;;;8.35;54.94;101521.31;4995795;28;46019;-82
2022/03/06 04:51:34;;;;;;;;;75.00;57.00;;;;;8.32;54.88;101524.94;4995411;28;45500;-83
2022/03/06 04:53:59;;;;;;;;;68.33;55.00;;;;;8.25;55.12;101507.50;4995935;28;46042;-82
2022/03/06 04:56:25;;;;;;;;;72.00;56.67;;;;;8.28;55.25;101520.66;4993978;28;45965;-83
2022/03/06 04:58:50;;;;;;;;;69.00;52.33;;;;;8.26;55.09;101509.22;4995421;28;45402;-83
2022/03/06 05:01:16;;;;;;;;;66.33;52.33;;;;;8.31;55.00;101525.00;4995671;28;45430;-83
2022/03/06 05:03:41;;;;;;;;;71.00;57.33;;;;;8.31;55.01;101533.81;4993159;28;58984;-83
2022/03/06 05:06:06;;;;;;;;;71.33;56.00;;;;;8.23;55.03;101521.75;4994979;28;45557;-82
2022/03/06 05:08:32;;;;;;;;;73.00;55.33;;;;;8.19;55.06;101534.22;4994845;28;45540;-82
2022/03/06 05:10:57;;;;;;;;;70.67;55.33;;;;;8.20;55.27;101533.31;4995391;28;45371;-82
2022/03/06 05:13:24;;;;;;;;;66.00;52.00;;;;;8.17;55.14;101544.00;4994992;28;45431;-82
2022/03/06 05:15:50;;;;;;;;;67.33;55.33;;;;;8.09;55.27;101538.97;4995225;28;45466;-81
2022/03/06 05:18:15;;;;;;;;;71.00;55.00;;;;;8.06;55.58;101544.38;4995478;28;45453;-83
2022/03/06 05:20:41;;;;;;;;;71.33;53.33;;;;;8.07;55.22;101546.09;4995010;28;45390;-83
2022/03/06 05:23:06;;;;;;;;;71.33;54.67;;;;;8.07;55.51;101546.09;4994968;28;45357;-82
2022/03/06 05:25:31;;;;;;;;;73.67;55.00;;;;;8.01;55.17;101543.66;4994939;28;45720;-82
2022/03/06 05:27:57;;;;;;;;;73.33;57.00;;;;;8.05;55.50;101545.28;4995390;28;45169;-82
2022/03/06 05:30:22;;;;;;;;;69.67;53.00;;;;;8.02;55.63;101550.69;4995353;28;45215;-82
2022/03/06 05:32:48;;;;;;;;;67.33;53.33;;;;;8.00;55.55;101544.56;4995294;28;45421;-82
2022/03/06 05:35:13;;;;;;;;;68.00;55.00;;;;;7.92;55.89;101529.84;4994090;28;45409;-82
2022/03/06 05:37:39;;;;;;;;;61.33;50.67;;;;;7.97;55.69;101539.38;4993631;28;45422;-82
2022/03/06 05:40:05;;;;;;;;;69.33;55.00;;;;;7.96;55.73;101550.00;4994924;28;45420;-82
2022/03/06 05:42:31;;;;;;;;;68.00;55.00;;;;;7.84;55.65;101533.59;4994875;28;46459;-82
2022/03/06 05:44:56;;;;;;;;;71.00;53.67;;;;;7.92;55.63;101545.75;4994985;28;45394;-82
2022/03/06 05:47:21;;;;;;;;;73.00;54.00;;;;;7.87;55.79;101543.25;4994721;28;45434;-82
2022/03/06 05:49:47;;;;;;;;;73.33;56.00;;;;;7.86;55.73;101544.13;4993742;28;45588;-82
2022/03/06 05:52:12;;;;;;;;;75.33;56.67;;;;;7.85;55.91;101548.56;4992855;28;45875;-82
2022/03/06 05:54:38;;;;;;;;;70.00;54.00;;;;;7.87;55.87;101554.72;4994989;28;46689;-82
2022/03/06 05:57:03;;;;;;;;;73.67;56.67;;;;;7.84;56.30;101562.75;4995206;28;45373;-83
2022/03/06 05:59:29;;;;;;;;;75.00;55.67;;;;;7.87;55.85;101561.78;4994555;28;45394;-83
2022/03/06 06:01:55;;;;;;;;;70.33;54.33;;;;;7.81;55.89;101556.66;4973539;28;47046;-83
2022/03/06 06:04:20;;;;;;;;;70.33;55.00;;;;;7.81;56.02;101559.31;4984142;28;45334;-82
2022/03/06 06:06:45;;;;;;;;;69.67;55.33;;;;;7.71;56.02;101542.84;4994145;28;46074;-83
2022/03/06 06:09:11;;;;;;;;;69.67;54.00;;;;;7.73;56.39;101556.06;4994884;28;45341;-82
2022/03/06 06:11:36;;;;;;;;;75.67;58.00;;;;;7.75;55.87;101565.69;4994681;28;45588;-83
2022/03/06 06:14:03;;;;;;;;;70.00;54.33;;;;;7.71;56.14;101569.34;4994381;28;45385;-83
2022/03/06 06:16:29;;;;;;;;;71.67;55.67;;;;;7.74;55.90;101573.69;4990366;28;45512;-83
2022/03/06 06:18:54;;;;;;;;;69.33;54.33;;;;;7.79;55.98;101585.91;4991837;28;45539;-83
2022/03/06 06:21:20;;;;;;;;;74.67;54.00;;;;;7.77;56.05;101579.78;4996485;28;47977;-82
2022/03/06 06:23:45;;;;;;;;;70.67;56.00;;;;;7.80;56.09;101582.31;4998229;28;45312;-80
2022/03/06 06:26:11;;;;;;;;;73.00;57.67;;;;;7.74;56.05;101578.97;4997654;28;45451;-81
2022/03/06 06:28:37;;;;;;;;;76.33;58.00;;;;;7.79;55.84;101582.34;4997951;28;45437;-81
2022/03/06 06:31:02;;;;;;;;;75.67;59.00;;;;;7.74;55.95;101582.50;4997406;28;46336;-82
2022/03/06 06:33:28;;;;;;;;;73.67;57.00;;;;;7.74;55.63;101586.94;4997290;28;45533;-82
2022/03/06 06:35:54;;;;;;;;;70.00;55.33;;;;;7.64;55.84;101581.91;4996715;28;45403;-82
2022/03/06 06:38:20;;;;;;;;;72.33;56.33;;;;;7.67;55.89;101592.44;4997556;28;45609;-81
2022/03/06 06:40:49;;;;;;;;;72.00;54.33;;;;;7.63;56.20;101589.94;4997253;28;46219;-81
2022/03/06 06:43:15;;;;;;;;;72.67;54.67;;;;;7.62;56.15;101599.63;4997596;28;45379;-82
2022/03/06 06:45:40;;;;;;;;;73.67;58.33;;;;;7.55;56.08;101586.63;4996154;28;45542;-81
2022/03/06 06:48:06;;;;;;;;;74.67;57.67;;;;;7.52;56.18;101592.88;4998054;28;45419;-82
2022/03/06 06:50:32;;;;;;;;;73.67;58.00;;;;;7.58;56.27;101613.91;4997099;28;46080;-81
2022/03/06 06:52:57;;;;;;;;;68.33;55.00;;;;;7.58;56.35;101608.59;4996994;28;45396;-81
2022/03/06 06:55:22;;;;;;;;;73.00;57.33;;;;;7.56;56.12;101620.16;4997040;28;45520;-82
2022/03/06 06:57:47;;;;;;;;;72.00;56.33;;;;;7.52;55.80;101614.06;4995267;28;45649;-81
2022/03/06 07:00:13;;;;;;;;;73.33;57.67;;;;;7.56;56.01;101625.47;4997325;28;46044;-82
2022/03/06 07:02:39;;;;;;;;;77.33;58.33;;;;;7.58;56.09;101621.84;4997208;28;45529;-81
2022/03/06 07:05:04;;;;;;;;;79.00;59.00;;;;;7.59;56.00;101626.22;4996765;28;45912;-81
2022/03/06 07:07:30;;;;;;;;;82.33;62.67;;;;;7.52;56.30;101626.47;4996838;28;45600;-82
2022/03/06 07:09:55;;;;;;;;;72.00;58.67;;;;;7.48;56.26;101620.41;4996825;28;45415;-81
2022/03/06 07:12:20;;;;;;;;;74.67;59.67;;;;;7.55;55.96;101635.19;4997276;28;45588;-82
2022/03/06 07:14:45;;;;;;;;;74.67;57.67;;;;;7.58;56.29;101637.75;4997623;28;45375;-82
2022/03/06 07:17:11;;;;;;;;;77.00;58.67;;;;;7.47;55.97;101618.63;4996041;28;45446;-82
2022/03/06 07:19:36;;;;;;;;;77.67;59.00;;;;;7.59;56.27;101638.63;4996746;28;46323;-81
2022/03/06 07:22:02;;;;;;;;;76.33;57.33;;;;;7.59;55.89;101630.66;4997040;28;45491;-82
2022/03/06 07:24:27;;;;;;;;;78.00;59.00;;;;;7.58;56.02;101636.88;4997043;28;45339;-81
2022/03/06 07:26:53;;;;;;;;;78.67;60.00;;;;;7.55;55.86;101636.97;4997058;28;45275;-82
2022/03/06 07:29:18;;;;;;;;;73.33;57.33;;;;;7.59;56.29;101642.13;4996002;28;46521;-82
2022/03/06 07:31:43;;;;;;;;;77.67;59.67;;;;;7.58;55.97;101648.34;4995380;28;45624;-82
2022/03/06 07:34:09;;;;;;;;;81.67;60.33;;;;;7.58;55.37;101644.84;4995184;28;45635;-82
2022/03/06 07:36:34;;;;;;;;;73.67;57.67;;;;;7.58;56.14;101647.50;4995942;28;45449;-81
2022/03/06 07:39:00;;;;;;;;;77.00;59.00;;;;;7.51;55.58;101649.44;4997241;28;46268;-81
2022/03/06 07:41:25;;;;;;;;;79.33;63.00;;;;;7.55;55.85;101653.75;4996092;28;45347;-81
2022/03/06 07:43:50;;;;;;;;;76.00;57.67;;;;;7.51;55.88;101665.34;4996303;28;45402;-81
2022/03/06 07:46:16;;;;;;;;;72.33;57.33;;;;;7.49;55.90;101655.69;4995129;28;45467;-81
2022/03/06 07:48:41;;;;;;;;;73.33;58.33;;;;;7.52;56.01;101661.75;4995629;28;47632;-81
2022/03/06 07:51:07;;;;;;;;;73.00;56.33;;;;;7.52;55.98;101661.75;4996507;28;45393;-81
2022/03/06 07:53:32;;;;;;;;;78.00;60.00;;;;;7.47;55.80;101661.88;4996232;28;45310;-81
2022/03/06 07:55:58;;;;;;;;;78.67;58.67;;;;;7.55;55.75;101671.41;4996388;28;45384;-82
2022/03/06 07:58:23;;;;;;;;;73.00;56.33;;;;;7.50;55.86;101668.88;4996285;28;46048;-82
2022/03/06 08:00:48;;;;;;;;;74.67;57.33;;;;;7.55;55.89;101680.25;4993623;28;45461;-82
2022/03/06 08:03:15;;;;;;;;;65.67;49.00;;;;;7.55;55.77;101674.03;4995176;28;45279;-81
2022/03/06 08:05:41;;;;;;;;;74.67;58.00;;;;;7.52;55.78;101675.00;4996544;28;45425;-82
2022/03/06 08:08:06;;;;;;;;;70.00;56.00;;;;;7.60;55.87;101690.69;4996182;28;45618;-82
2022/03/06 08:10:31;;;;;;;;;72.00;58.00;;;;;7.58;55.63;101690.75;4996012;28;45368;-82
2022/03/06 08:12:57;;;;;;;;;65.33;54.00;;;;;7.66;55.77;101693.16;4995674;28;45333;-82
2022/03/06 08:15:22;;;;;;;;;74.33;57.33;;;;;7.68;55.78;101700.16;4995374;28;45393;-81
2022/03/06 08:17:48;;;;;;;;;75.00;58.67;;;;;7.67;55.71;101701.09;4995275;28;46189;-82
2022/03/06 08:20:14;;;;;;;;;76.33;59.00;;;;;7.65;55.39;101696.75;4995134;28;45528;-82
2022/03/06 08:22:40;;;;;;;;;73.33;56.33;;;;;7.71;55.07;101698.34;4993911;28;45405;-82
2022/03/06 08:25:06;;;;;;;;;77.33;58.33;;;;;7.75;55.04;101707.94;4992616;28;45581;-82
2022/03/06 08:27:32;;;;;;;;;71.67;55.00;;;;;7.77;55.01;101709.63;4995885;28;45280;-82
2022/03/06 08:29:58;;;;;;;;;73.33;55.33;;;;;7.80;54.92;101709.53;4995912;28;45247;-82
2022/03/06 08:32:24;;;;;;;;;74.00;57.00;;;;;7.85;54.68;101710.28;4995402;28;45561;-82
2022/03/06 08:34:51;;;;;;;;;71.00;56.33;;;;;7.87;54.70;101712.88;4995522;28;45389;-83
2022/03/06 08:37:19;;;;;;;;;72.00;56.67;;;;;7.86;54.74;101716.44;4995660;28;46337;-82
2022/03/06 08:39:46;;;;;;;;;73.33;56.33;;;;;7.79;54.31;101710.47;4995667;28;45481;-82
2022/03/06 08:42:12;;;;;;;;;69.67;53.00;;;;;7.87;54.28;101713.75;4996019;28;45404;-82
2022/03/06 08:44:37;;;;;;;;;73.33;55.67;;;;;7.86;53.48;101711.13;4994724;28;45312;-82
2022/03/06 08:47:02;;;;;;;;;70.00;54.67;;;;;7.75;53.32;101702.66;4994742;28;46732;-82
2022/03/06 08:49:28;;;;;;;;;66.67;52.00;;;;;7.81;53.62;101710.41;4994875;28;45430;-82
2022/03/06 08:51:54;;;;;;;;;66.33;51.33;;;;;7.81;53.30;101715.69;4992347;28;45579;-81
2022/03/06 08:54:20;;;;;;;;;67.67;55.00;;;;;7.81;53.21;101718.34;4995145;28;45535;-83
2022/03/06 08:56:46;;;;;;;;;69.33;52.67;;;;;7.86;53.07;101722.63;4995843;28;47113;-83
2022/03/06 08:59:11;;;;;;;;;66.33;51.67;;;;;7.81;52.71;101716.56;4994564;28;45488;-83
2022/03/06 09:01:36;;;;;;;;;67.67;52.67;;;;;7.87;52.54;101699.63;4995279;28;45448;-83
2022/03/06 09:04:02;;;;;;;;;66.00;50.67;;;;;7.93;52.73;101701.22;4993444;28;45394;-83
2022/03/06 09:06:28;;;;;;;;;70.00;53.33;;;;;7.70;52.25;101655.06;4995013;28;45462;-83
2022/03/06 09:08:53;;;;;;;;;64.00;50.33;;;;;8.03;52.20;101719.47;4995837;28;45319;-83
2022/03/06 09:11:18;;;;;;;;;65.67;52.33;;;;;8.14;51.93;101726.25;4994035;28;45181;-83
2022/03/06 09:13:44;;;;;;;;;67.33;52.00;;;;;8.19;53.20;101727.84;4992861;28;45616;-83
2022/03/06 09:16:09;;;;;;;;;66.67;50.33;;;;;8.22;51.97;101730.38;4995069;28;45464;-84
2022/03/06 09:18:34;;;;;;;;;58.00;48.00;;;;;8.30;51.36;101733.69;4994730;28;45261;-83
2022/03/06 09:21:00;;;;;;;;;68.67;53.33;;;;;8.33;51.05;101730.94;4994626;28;45376;-83
2022/03/06 09:23:25;;;;;;;;;64.67;48.33;;;;;8.43;50.84;101723.59;4990378;28;45502;-82
2022/03/06 09:25:50;;;;;;;;;64.33;50.67;;;;;8.46;50.64;101723.47;4994239;28;46162;-82
2022/03/06 09:28:16;;;;;;;;;65.33;52.00;;;;;8.57;50.52;101717.84;4994019;28;45487;-82
2022/03/06 09:30:42;;;;;;;;;62.67;51.00;;;;;8.61;50.60;101724.81;4995079;28;45479;-81
2022/03/06 09:33:08;;;;;;;;;63.00;50.00;;;;;8.72;50.52;101727.09;4993798;28;45550;-82
2022/03/06 09:35:34;;;;;;;;;62.25;47.00;;;;;8.72;50.17;101722.66;4993931;28;46525;-81
2022/03/06 09:37:59;;;;;;;;;58.25;46.00;;;;;8.83;49.26;101727.63;4993554;28;45568;-82
2022/03/06 09:40:25;;;;;;;;;58.75;47.75;;;;;8.86;49.11;101738.13;4993513;28;45956;-83
2022/03/06 09:42:50;;;;;;;;;57.33;46.67;;;;;8.95;49.28;101739.63;4993997;28;45557;-82
2022/03/06 09:45:16;;;;;;;;;53.67;41.00;;;;;9.05;49.31;101740.19;4993289;28;46098;-81
2022/03/06 09:47:44;;;;;;;;;58.67;48.67;;;;;9.14;48.98;101743.41;4994287;28;45488;-82
2022/03/06 09:50:12;;;;;;;;;55.75;45.25;;;;;9.13;48.15;101733.69;4993010;28;46857;-82
2022/03/06 09:52:37;;;;;;;;;53.25;43.50;;;;;9.25;47.69;101744.81;4993502;28;45446;-82
2022/03/06 09:55:03;;;;;;;;;56.25;43.50;;;;;9.25;47.38;101745.69;4996983;28;45461;-83
2022/03/06 09:57:29;;;;;;;;;54.50;43.75;;;;;9.31;47.93;101753.44;4997703;28;45339;-82
2022/03/06 09:59:54;;;;;;;;;56.00;43.50;;;;;9.25;46.69;101729.75;4998783;28;45314;-82
2022/03/06 10:02:20;;;;;;;;;52.75;44.75;;;;;9.32;46.67;101746.34;4996950;28;48969;-82
2022/03/06 10:04:46;;;;;;;;;58.00;45.50;;;;;9.36;46.58;101748.84;4997703;28;45432;-83
2022/03/06 10:07:14;;;;;;;;;47.00;40.00;;;;;9.36;46.51;101732.03;4998062;28;45306;-81
2022/03/06 10:09:50;;;;;;;;;56.25;47.00;;;;;9.50;46.29;101750.13;4997299;28;45317;-83
2022/03/06 10:12:23;;;;;;;;;54.00;44.25;;;;;9.55;46.31;101746.41;4995349;28;45476;-83
2022/03/06 10:14:51;;;;;;;;;49.50;40.50;;;;;9.62;45.97;101739.09;4998198;28;45704;-84
2022/03/06 10:17:17;;;;;;;;;54.00;42.00;;;;;9.68;45.26;101730.88;4997771;28;45508;-83
2022/03/06 10:19:55;;;;;;;;;50.50;40.50;;;;;9.80;44.84;101742.84;4997742;28;45544;-83
2022/03/06 10:22:23;;;;;;;;;49.50;39.25;;;;;9.87;45.09;101740.84;4997636;28;45358;-83
2022/03/06 10:24:54;;;;;;;;;45.25;38.50;;;;;9.81;43.23;101725.97;4997267;28;45553;-83
2022/03/06 10:27:44;;;;;;;;;38.75;33.75;;;;;10.00;43.33;101740.31;4998092;28;45419;-83
2022/03/06 10:30:22;;;;;;;;;42.00;35.75;;;;;10.06;43.35;101725.06;4994560;28;45422;-83
2022/03/06 10:32:48;;;;;;;;;39.25;30.75;;;;;10.24;42.80;101730.53;4997920;28;45504;-83
2022/03/06 10:35:13;;;;;;;;;38.00;33.00;;;;;10.39;42.60;101741.53;4997194;28;46234;-83
2022/03/06 10:37:39;;;;;;;;;40.50;34.75;;;;;10.46;41.49;101740.34;4997572;28;45712;-83
2022/03/06 10:40:05;;;;;;;;;31.25;23.00;;;;;10.56;40.78;101738.19;4997276;28;45461;-83
2022/03/06 10:42:30;;;;;;;;;39.25;33.75;;;;;10.56;40.38;101716.91;4997582;28;45640;-81
2022/03/06 10:44:55;;;;;;;;;34.75;29.75;;;;;10.69;39.30;101734.13;4997724;28;46212;-83
2022/03/06 10:47:21;;;;;;;;;36.25;31.75;;;;;10.79;39.34;101740.81;4997495;28;45704;-83
2022/03/06 10:50:24;;;;;;;;;36.25;31.50;;;;;10.89;39.31;101741.28;4996067;28;45707;-83
2022/03/06 10:52:53;;;;;;;;;27.75;25.00;;;;;10.93;37.66;101734.91;4970987;28;45469;-83
2022/03/06 10:55:31;;;;;;;;;30.75;27.75;;;;;11.06;37.27;101745.91;4970602;28;46342;-81
2022/03/06 10:57:57;;;;;;;;;30.00;27.00;;;;;11.13;37.32;101742.06;4973059;28;45546;-83
2022/03/06 11:00:23;;;;;;;;;27.50;25.75;;;;;11.28;37.46;101738.75;4975456;28;45292;-81
2022/03/06 11:02:49;;;;;;;;;29.75;25.25;;;;;11.40;36.81;101742.69;4975690;28;45538;-84
2022/03/06 11:05:15;;;;;;;;;33.25;29.75;;;;;11.52;36.55;101736.81;4974499;28;46217;-81
2022/03/06 11:07:40;;;;;;;;;28.25;25.00;;;;;11.59;36.16;101728.53;4971982;28;45492;-81
2022/03/06 11:10:06;;;;;;;;;28.50;25.25;;;;;11.58;36.45;101735.69;4974529;28;45786;-81